sensor_id;sensor_type;location;lat;lon;timestamp;pressure;altitude;pressure_sealevel;temperature;humidity
12759;BME280;20944;47.048;15.390;2023-03-01T00:01:40;98423.72;;;2.85;75.24
12759;BME280;20944;47.048;15.390;2023-03-01T00:04:08;98436.78;;;2.91;75.61
12759;BME280;20944;47.048;15.390;2023-03-01T00:06:38;98388.94;;;2.65;74.82
12759;BME280;20944;47.048;15.390;2023-03-01T00:09:06;98441.97;;;2.93;74.88
12759;BME280;20944;47.048;15.390;2023-03-01T00:11:34;98417.69;;;2.83;75.12
12759;BME280;20944;47.048;15.390;2023-03-01T00:14:03;98442.81;;;2.93;76.87
12759;BME280;20944;47.048;15.390;2023-03-01T00:16:35;98423.72;;;2.84;77.47
12759;BME280;20944;47.048;15.390;2023-03-01T00:19:06;98431.72;;;3.01;78.16
12759;BME280;20944;47.048;15.390;2023-03-01T00:21:34;98429.31;;;3.11;77.84
12759;BME280;20944;47.048;15.390;2023-03-01T00:24:04;98407.53;;;2.97;76.24
12759;BME280;20944;47.048;15.390;2023-03-01T00:26:33;98431.00;;;3.09;76.04
12759;BME280;20944;47.048;15.390;2023-03-01T00:29:01;98432.69;;;3.07;75.89
12759;BME280;20944;47.048;15.390;2023-03-01T00:31:31;98433.41;;;2.97;77.58
12759;BME280;20944;47.048;15.390;2023-03-01T00:34:01;98440.16;;;2.89;78.92
12759;BME280;20944;47.048;15.390;2023-03-01T00:36:31;98442.63;;;2.81;80.40
12759;BME280;20944;47.048;15.390;2023-03-01T00:39:00;98433.13;;;2.79;80.89
12759;BME280;20944;47.048;15.390;2023-03-01T00:41:31;98425.34;;;2.79;81.23
12759;BME280;20944;47.048;15.390;2023-03-01T00:44:01;98239.13;;;1.70;81.09
12759;BME280;20944;47.048;15.390;2023-03-01T00:46:29;98420.16;;;2.77;80.03
12759;BME280;20944;47.048;15.390;2023-03-01T00:48:58;98421.88;;;2.77;79.94
12759;BME280;20944;47.048;15.390;2023-03-01T00:51:29;98408.78;;;2.66;79.92
12759;BME280;20944;47.048;15.390;2023-03-01T00:53:58;98396.69;;;2.65;79.91
12759;BME280;20944;47.048;15.390;2023-03-01T00:56:27;98423.72;;;2.84;80.77
12759;BME280;20944;47.048;15.390;2023-03-01T00:58:57;98415.97;;;2.85;81.09
12759;BME280;20944;47.048;15.390;2023-03-01T01:01:27;98409.09;;;2.89;80.70
12759;BME280;20944;47.048;15.390;2023-03-01T01:03:58;98266.31;;;1.98;80.47
12759;BME280;20944;47.048;15.390;2023-03-01T01:06:28;98409.00;;;2.81;80.51
12759;BME280;20944;47.048;15.390;2023-03-01T01:08:57;98417.63;;;2.82;80.46
12759;BME280;20944;47.048;15.390;2023-03-01T01:11:28;98414.13;;;2.78;80.59
12759;BME280;20944;47.048;15.390;2023-03-01T01:13:58;98415.88;;;2.79;81.24
12759;BME280;20944;47.048;15.390;2023-03-01T01:16:27;98382.16;;;2.75;80.33
12759;BME280;20944;47.048;15.390;2023-03-01T01:18:57;98400.44;;;2.84;80.48
12759;BME280;20944;47.048;15.390;2023-03-01T01:21:25;98389.22;;;2.85;80.91
12759;BME280;20944;47.048;15.390;2023-03-01T01:23:54;98379.56;;;2.75;80.53
12759;BME280;20944;47.048;15.390;2023-03-01T01:26:23;98395.25;;;2.85;80.92
12759;BME280;20944;47.048;15.390;2023-03-01T01:28:52;98404.78;;;2.86;80.83
12759;BME280;20944;47.048;15.390;2023-03-01T01:31:23;98389.25;;;2.88;80.47
12759;BME280;20944;47.048;15.390;2023-03-01T01:33:52;98392.75;;;2.90;79.09
12759;BME280;20944;47.048;15.390;2023-03-01T01:36:20;98397.09;;;2.91;79.41
12759;BME280;20944;47.048;15.390;2023-03-01T01:38:49;98385.72;;;2.83;79.51
12759;BME280;20944;47.048;15.390;2023-03-01T01:41:18;98380.59;;;2.84;80.54
12759;BME280;20944;47.048;15.390;2023-03-01T01:43:47;98377.13;;;2.84;79.82
12759;BME280;20944;47.048;15.390;2023-03-01T01:46:24;98368.44;;;2.79;79.65
12759;BME280;20944;47.048;15.390;2023-03-01T01:48:55;98364.97;;;2.78;79.58
12759;BME280;20944;47.048;15.390;2023-03-01T01:51:28;98331.94;;;2.60;79.28
12759;BME280;20944;47.048;15.390;2023-03-01T01:54:09;98361.44;;;2.73;79.80
12759;BME280;20944;47.048;15.390;2023-03-01T01:56:40;98365.75;;;2.74;79.46
12759;BME280;20944;47.048;15.390;2023-03-01T01:59:10;98370.94;;;2.74;78.80
12759;BME280;20944;47.048;15.390;2023-03-01T02:01:41;98353.41;;;2.56;79.11
12759;BME280;20944;47.048;15.390;2023-03-01T02:04:09;98367.59;;;2.81;79.67
12759;BME280;20944;47.048;15.390;2023-03-01T02:06:41;98255.25;;;2.06;79.35
12759;BME280;20944;47.048;15.390;2023-03-01T02:09:14;98361.63;;;2.87;79.66
12759;BME280;20944;47.048;15.390;2023-03-01T02:11:44;98334.69;;;2.71;79.77
12759;BME280;20944;47.048;15.390;2023-03-01T02:14:12;98361.63;;;2.87;79.67
12759;BME280;20944;47.048;15.390;2023-03-01T02:16:42;98279.00;;;2.38;79.72
12759;BME280;20944;47.048;15.390;2023-03-01T02:19:19;98357.25;;;2.81;79.44
12759;BME280;20944;47.048;15.390;2023-03-01T02:21:58;98353.84;;;2.84;79.26
12759;BME280;20944;47.048;15.390;2023-03-01T02:24:37;98356.38;;;2.82;78.52
12759;BME280;20944;47.048;15.390;2023-03-01T02:27:09;98321.59;;;2.60;78.98
12759;BME280;20944;47.048;15.390;2023-03-01T02:29:40;98121.28;;;1.22;78.88
12759;BME280;20944;47.048;15.390;2023-03-01T02:32:13;98345.75;;;2.62;79.42
12759;BME280;20944;47.048;15.390;2023-03-01T02:34:43;98294.31;;;2.26;79.80
12759;BME280;20944;47.048;15.390;2023-03-01T02:37:14;98350.81;;;2.55;79.84
12759;BME280;20944;47.048;15.390;2023-03-01T02:39:48;98343.84;;;2.51;80.29
12759;BME280;20944;47.048;15.390;2023-03-01T02:42:22;98341.22;;;2.49;80.66
12759;BME280;20944;47.048;15.390;2023-03-01T02:44:54;98347.38;;;2.57;80.52
12759;BME280;20944;47.048;15.390;2023-03-01T02:47:22;98345.75;;;2.62;80.39
12759;BME280;20944;47.048;15.390;2023-03-01T02:49:50;98277.13;;;2.28;80.15
12759;BME280;20944;47.048;15.390;2023-03-01T02:52:29;98323.97;;;2.47;80.27
12759;BME280;20944;47.048;15.390;2023-03-01T02:55:01;98334.44;;;2.57;80.00
12759;BME280;20944;47.048;15.390;2023-03-01T02:57:32;98336.16;;;2.54;80.38
12759;BME280;20944;47.048;15.390;2023-03-01T03:00:05;98341.41;;;2.58;80.29
12759;BME280;20944;47.048;15.390;2023-03-01T03:02:35;98341.34;;;2.57;80.75
12759;BME280;20944;47.048;15.390;2023-03-01T03:05:06;98338.75;;;2.55;80.57
12759;BME280;20944;47.048;15.390;2023-03-01T03:07:37;98334.44;;;2.57;80.35
12759;BME280;20944;47.048;15.390;2023-03-01T03:10:08;98281.22;;;2.14;79.70
12759;BME280;20944;47.048;15.390;2023-03-01T03:12:38;98327.53;;;2.55;79.61
12759;BME280;20944;47.048;15.390;2023-03-01T03:15:09;98330.97;;;2.54;80.04
12759;BME280;20944;47.048;15.390;2023-03-01T03:17:41;98332.72;;;2.55;80.25
12759;BME280;20944;47.048;15.390;2023-03-01T03:20:13;98313.63;;;2.48;80.89
12759;BME280;20944;47.048;15.390;2023-03-01T03:22:46;98340.81;;;2.78;78.83
12759;BME280;20944;47.048;15.390;2023-03-01T03:25:15;98320.78;;;2.64;78.92
12759;BME280;20944;47.048;15.390;2023-03-01T03:27:44;98332.88;;;2.67;80.47
12759;BME280;20944;47.048;15.390;2023-03-01T03:30:17;98208.44;;;1.88;82.00
12759;BME280;20944;47.048;15.390;2023-03-01T03:32:47;98334.69;;;2.71;80.38
12759;BME280;20944;47.048;15.390;2023-03-01T03:35:20;98319.88;;;2.62;81.89
12759;BME280;20944;47.048;15.390;2023-03-01T03:37:49;98291.31;;;2.53;82.32
12759;BME280;20944;47.048;15.390;2023-03-01T03:40:34;98339.03;;;2.74;82.38
12759;BME280;20944;47.048;15.390;2023-03-01T03:43:04;98301.78;;;2.64;81.54
12759;BME280;20944;47.048;15.390;2023-03-01T03:45:34;98331.28;;;2.75;80.96
12759;BME280;20944;47.048;15.390;2023-03-01T03:48:06;98148.28;;;1.42;81.52
12759;BME280;20944;47.048;15.390;2023-03-01T03:50:34;98344.94;;;2.65;81.19
12759;BME280;20944;47.048;15.390;2023-03-01T03:53:04;98318.91;;;2.56;81.63
12759;BME280;20944;47.048;15.390;2023-03-01T03:55:32;98343.25;;;2.68;80.34
12759;BME280;20944;47.048;15.390;2023-03-01T03:58:02;98340.56;;;2.61;78.58
12759;BME280;20944;47.048;15.390;2023-03-01T04:00:36;98343.81;;;2.49;79.14
12759;BME280;20944;47.048;15.390;2023-03-01T04:03:05;98309.91;;;2.29;79.33
12759;BME280;20944;47.048;15.390;2023-03-01T04:05:33;98307.28;;;2.28;79.00
12759;BME280;20944;47.048;15.390;2023-03-01T04:08:02;98341.34;;;2.57;79.31
12759;BME280;20944;47.048;15.390;2023-03-01T04:10:35;98338.75;;;2.55;80.00
12759;BME280;20944;47.048;15.390;2023-03-01T04:13:04;98337.88;;;2.55;79.94
12759;BME280;20944;47.048;15.390;2023-03-01T04:15:33;98336.13;;;2.52;79.85
12759;BME280;20944;47.048;15.390;2023-03-01T04:18:03;98236.94;;;1.94;79.21
12759;BME280;20944;47.048;15.390;2023-03-01T04:20:34;98331.00;;;2.57;79.11
12759;BME280;20944;47.048;15.390;2023-03-01T04:23:05;98333.63;;;2.58;79.53
12759;BME280;20944;47.048;15.390;2023-03-01T04:25:41;98317.94;;;2.48;79.08
12759;BME280;20944;47.048;15.390;2023-03-01T04:28:10;98348.34;;;2.64;78.56
12759;BME280;20944;47.048;15.390;2023-03-01T04:30:38;98346.63;;;2.63;77.54
12759;BME280;20944;47.048;15.390;2023-03-01T04:33:10;98317.25;;;2.58;78.43
12759;BME280;20944;47.048;15.390;2023-03-01T04:35:38;98339.00;;;2.72;80.28
12759;BME280;20944;47.048;15.390;2023-03-01T04:38:07;98341.59;;;2.74;79.61
12759;BME280;20944;47.048;15.390;2023-03-01T04:40:35;98352.72;;;2.66;80.31
12759;BME280;20944;47.048;15.390;2023-03-01T04:43:04;98293.63;;;2.35;81.67
12759;BME280;20944;47.048;15.390;2023-03-01T04:45:32;98321.41;;;2.50;82.23
12759;BME280;20944;47.048;15.390;2023-03-01T04:48:02;98345.75;;;2.62;82.48
12759;BME280;20944;47.048;15.390;2023-03-01T04:50:32;98302.34;;;2.43;81.94
12759;BME280;20944;47.048;15.390;2023-03-01T04:53:00;98338.06;;;2.65;81.66
12759;BME280;20944;47.048;15.390;2023-03-01T04:55:29;98333.84;;;2.74;81.14
12759;BME280;20944;47.048;15.390;2023-03-01T04:57:58;98266.69;;;2.21;80.48
12759;BME280;20944;47.048;15.390;2023-03-01T05:00:26;98291.13;;;2.42;79.95
12759;BME280;20944;47.048;15.390;2023-03-01T05:02:56;98328.56;;;2.66;80.25
12759;BME280;20944;47.048;15.390;2023-03-01T05:05:26;98328.50;;;2.63;80.43
12759;BME280;20944;47.048;15.390;2023-03-01T05:07:58;98312.00;;;2.53;77.71
12759;BME280;20944;47.048;15.390;2023-03-01T05:10:27;98327.63;;;2.61;76.76
12759;BME280;20944;47.048;15.390;2023-03-01T05:12:57;98330.22;;;2.62;76.10
12759;BME280;20944;47.048;15.390;2023-03-01T05:15:26;98329.38;;;2.63;75.96
12759;BME280;20944;47.048;15.390;2023-03-01T05:17:57;98179.78;;;1.71;75.38
12759;BME280;20944;47.048;15.390;2023-03-01T05:20:26;98319.94;;;2.67;76.27
12759;BME280;20944;47.048;15.390;2023-03-01T05:22:57;98323.41;;;2.67;76.79
12759;BME280;20944;47.048;15.390;2023-03-01T05:25:26;98300.72;;;2.51;77.19
12759;BME280;20944;47.048;15.390;2023-03-01T05:28:00;98269.47;;;2.33;77.35
12759;BME280;20944;47.048;15.390;2023-03-01T05:30:31;98326.84;;;2.65;77.76
12759;BME280;20944;47.048;15.390;2023-03-01T05:33:01;98334.69;;;2.71;78.78
12759;BME280;20944;47.048;15.390;2023-03-01T05:35:29;98270.25;;;2.29;78.66
12759;BME280;20944;47.048;15.390;2023-03-01T05:38:00;98336.63;;;2.86;77.81
12759;BME280;20944;47.048;15.390;2023-03-01T05:40:29;98312.34;;;2.78;77.25
12759;BME280;20944;47.048;15.390;2023-03-01T05:42:57;98339.19;;;2.86;76.63
12759;BME280;20944;47.048;15.390;2023-03-01T05:45:26;98348.66;;;2.84;73.64
12759;BME280;20944;47.048;15.390;2023-03-01T05:47:55;98316.25;;;2.51;74.00
12759;BME280;20944;47.048;15.390;2023-03-01T05:50:25;98326.56;;;2.48;76.14
12759;BME280;20944;47.048;15.390;2023-03-01T05:52:57;98335.28;;;2.55;76.96
12759;BME280;20944;47.048;15.390;2023-03-01T05:55:28;98219.91;;;1.52;76.11
12759;BME280;20944;47.048;15.390;2023-03-01T05:57:58;98284.63;;;2.13;75.62
12759;BME280;20944;47.048;15.390;2023-03-01T06:00:28;98349.00;;;2.49;75.70
12759;BME280;20944;47.048;15.390;2023-03-01T06:02:57;98325.53;;;2.37;75.88
12759;BME280;20944;47.048;15.390;2023-03-01T06:05:26;98244.56;;;1.85;75.71
12759;BME280;20944;47.048;15.390;2023-03-01T06:07:56;98323.19;;;2.52;75.56
12759;BME280;20944;47.048;15.390;2023-03-01T06:10:28;98348.50;;;2.72;75.51
12759;BME280;20944;47.048;15.390;2023-03-01T06:12:57;98351.97;;;2.74;75.94
12759;BME280;20944;47.048;15.390;2023-03-01T06:15:26;98352.78;;;2.71;76.43
12759;BME280;20944;47.048;15.390;2023-03-01T06:17:55;98324.91;;;2.52;77.03
12759;BME280;20944;47.048;15.390;2023-03-01T06:20:27;98356.16;;;2.65;77.68
12759;BME280;20944;47.048;15.390;2023-03-01T06:22:58;98357.91;;;2.68;77.72
12759;BME280;20944;47.048;15.390;2023-03-01T06:25:28;98327.59;;;2.58;77.30
12759;BME280;20944;47.048;15.390;2023-03-01T06:27:56;98354.63;;;2.78;75.54
12759;BME280;20944;47.048;15.390;2023-03-01T06:30:26;98355.59;;;2.88;75.77
12759;BME280;20944;47.048;15.390;2023-03-01T06:32:54;98358.25;;;2.89;76.06
12759;BME280;20944;47.048;15.390;2023-03-01T06:35:28;98360.00;;;2.92;75.86
12759;BME280;20944;47.048;15.390;2023-03-01T06:37:58;98350.22;;;2.73;75.46
12759;BME280;20944;47.048;15.390;2023-03-01T06:40:28;98317.84;;;2.40;76.27
12759;BME280;20944;47.048;15.390;2023-03-01T06:42:58;98369.38;;;2.85;77.22
12759;BME280;20944;47.048;15.390;2023-03-01T06:45:26;98378.19;;;2.96;76.74
12759;BME280;20944;47.048;15.390;2023-03-01T06:48:01;98337.97;;;2.59;76.40
12759;BME280;20944;47.048;15.390;2023-03-01T06:50:30;98331.13;;;2.64;77.98
12759;BME280;20944;47.048;15.390;2023-03-01T06:52:59;98355.50;;;2.80;77.62
12759;BME280;20944;47.048;15.390;2023-03-01T06:55:29;98384.16;;;2.94;77.25
12759;BME280;20944;47.048;15.390;2023-03-01T06:57:58;98238.09;;;2.13;77.00
12759;BME280;20944;47.048;15.390;2023-03-01T07:00:28;98381.81;;;3.11;75.67
12759;BME280;20944;47.048;15.390;2023-03-01T07:02:58;98379.25;;;3.11;74.98
12759;BME280;20944;47.048;15.390;2023-03-01T07:05:29;98304.22;;;2.52;75.59
12759;BME280;20944;47.048;15.390;2023-03-01T07:07:57;98379.13;;;3.03;73.41
12759;BME280;20944;47.048;15.390;2023-03-01T07:10:25;98325.13;;;2.68;72.99
12759;BME280;20944;47.048;15.390;2023-03-01T07:12:58;98358.25;;;2.89;73.57
12759;BME280;20944;47.048;15.390;2023-03-01T07:15:27;98371.19;;;2.91;73.30
12759;BME280;20944;47.048;15.390;2023-03-01T07:17:56;98391.16;;;3.00;73.82
12759;BME280;20944;47.048;15.390;2023-03-01T07:20:24;98390.38;;;3.04;72.16
12759;BME280;20944;47.048;15.390;2023-03-01T07:22:53;98395.63;;;3.11;72.03
12759;BME280;20944;47.048;15.390;2023-03-01T07:25:23;98391.34;;;3.13;72.08
12759;BME280;20944;47.048;15.390;2023-03-01T07:27:51;98405.16;;;3.12;71.12
12759;BME280;20944;47.048;15.390;2023-03-01T07:30:21;98329.41;;;2.65;71.58
12759;BME280;20944;47.048;15.390;2023-03-01T07:32:52;98382.44;;;2.93;72.14
12759;BME280;20944;47.048;15.390;2023-03-01T07:35:21;98408.59;;;3.13;70.84
12759;BME280;20944;47.048;15.390;2023-03-01T07:37:50;98419.00;;;3.14;70.50
12759;BME280;20944;47.048;15.390;2023-03-01T07:40:18;98402.53;;;3.11;70.76
12759;BME280;20944;47.048;15.390;2023-03-01T07:42:47;98399.06;;;3.09;71.21
12759;BME280;20944;47.048;15.390;2023-03-01T07:45:15;98395.75;;;3.20;68.66
12759;BME280;20944;47.048;15.390;2023-03-01T07:47:45;98399.25;;;3.21;68.94
12759;BME280;20944;47.048;15.390;2023-03-01T07:50:13;98399.19;;;3.19;69.03
12759;BME280;20944;47.048;15.390;2023-03-01T07:52:44;98394.75;;;3.09;69.38
12759;BME280;20944;47.048;15.390;2023-03-01T07:55:13;98412.75;;;3.02;70.80
12759;BME280;20944;47.048;15.390;2023-03-01T07:57:43;98414.34;;;2.90;71.89
12759;BME280;20944;47.048;15.390;2023-03-01T08:00:12;98389.03;;;2.73;72.42
12759;BME280;20944;47.048;15.390;2023-03-01T08:02:41;98371.78;;;2.72;73.03
12759;BME280;20944;47.048;15.390;2023-03-01T08:05:11;98408.38;;;2.96;73.08
12759;BME280;20944;47.048;15.390;2023-03-01T08:07:39;98405.03;;;3.03;73.72
12759;BME280;20944;47.048;15.390;2023-03-01T08:10:09;98402.38;;;3.02;73.33
12759;BME280;20944;47.048;15.390;2023-03-01T08:12:37;98405.22;;;3.17;73.07
12759;BME280;20944;47.048;15.390;2023-03-01T08:15:06;98412.91;;;3.12;73.49
12759;BME280;20944;47.048;15.390;2023-03-01T08:17:35;98403.31;;;3.05;73.24
12759;BME280;20944;47.048;15.390;2023-03-01T08:20:04;98358.47;;;2.49;73.86
12759;BME280;20944;47.048;15.390;2023-03-01T08:22:35;98412.69;;;2.95;74.47
12759;BME280;20944;47.048;15.390;2023-03-01T08:25:04;98404.19;;;3.04;74.63
12759;BME280;20944;47.048;15.390;2023-03-01T08:27:32;98413.88;;;3.20;74.05
12759;BME280;20944;47.048;15.390;2023-03-01T08:30:00;98393.84;;;3.07;73.79
12759;BME280;20944;47.048;15.390;2023-03-01T08:32:29;98387.75;;;3.02;73.53
12759;BME280;20944;47.048;15.390;2023-03-01T08:34:57;98377.44;;;3.07;74.47
12759;BME280;20944;47.048;15.390;2023-03-01T08:37:25;98402.81;;;3.32;73.27
12759;BME280;20944;47.048;15.390;2023-03-01T08:39:55;98400.28;;;3.35;72.78
12759;BME280;20944;47.048;15.390;2023-03-01T08:42:24;98402.03;;;3.38;72.55
12759;BME280;20944;47.048;15.390;2023-03-01T08:44:52;98275.81;;;2.55;72.68
12759;BME280;20944;47.048;15.390;2023-03-01T08:47:20;98391.56;;;3.29;72.81
12759;BME280;20944;47.048;15.390;2023-03-01T08:49:49;98381.38;;;3.41;72.71
12759;BME280;20944;47.048;15.390;2023-03-01T08:52:18;98382.41;;;3.54;71.53
12759;BME280;20944;47.048;15.390;2023-03-01T08:54:47;98340.72;;;3.34;71.75
12759;BME280;20944;47.048;15.390;2023-03-01T08:57:17;98385.00;;;3.55;72.91
12759;BME280;20944;47.048;15.390;2023-03-01T08:59:45;98378.94;;;3.53;72.42
12759;BME280;20944;47.048;15.390;2023-03-01T09:02:15;98376.38;;;3.56;72.54
12759;BME280;20944;47.048;15.390;2023-03-01T09:04:44;98372.69;;;3.39;73.74
12759;BME280;20944;47.048;15.390;2023-03-01T09:07:12;98377.06;;;3.43;73.59
12759;BME280;20944;47.048;15.390;2023-03-01T09:09:40;98351.88;;;3.30;73.93
12759;BME280;20944;47.048;15.390;2023-03-01T09:12:09;98344.19;;;3.36;74.08
12759;BME280;20944;47.048;15.390;2023-03-01T09:14:39;98366.84;;;3.54;73.45
12759;BME280;20944;47.048;15.390;2023-03-01T09:17:08;98357.38;;;3.57;73.89
12759;BME280;20944;47.048;15.390;2023-03-01T09:19:36;98346.22;;;3.64;72.48
12759;BME280;20944;47.048;15.390;2023-03-01T09:22:04;98314.19;;;3.58;74.08
12759;BME280;20944;47.048;15.390;2023-03-01T09:24:33;98338.44;;;3.61;72.49
12759;BME280;20944;47.048;15.390;2023-03-01T09:27:01;98323.69;;;3.57;72.98
12759;BME280;20944;47.048;15.390;2023-03-01T09:29:29;98332.31;;;3.55;73.67
12759;BME280;20944;47.048;15.390;2023-03-01T09:31:59;98231.59;;;3.06;72.84
12759;BME280;20944;47.048;15.390;2023-03-01T09:34:27;98309.09;;;3.64;73.82
12759;BME280;20944;47.048;15.390;2023-03-01T09:36:57;98324.81;;;3.77;74.85
12759;BME280;20944;47.048;15.390;2023-03-01T09:39:26;98323.09;;;3.81;73.42
12759;BME280;20944;47.048;15.390;2023-03-01T09:41:59;98302.28;;;3.75;73.06
12759;BME280;20944;47.048;15.390;2023-03-01T09:44:32;98323.09;;;3.83;74.03
12759;BME280;20944;47.048;15.390;2023-03-01T09:47:05;98318.06;;;3.98;73.33
12759;BME280;20944;47.048;15.390;2023-03-01T09:49:40;98303.28;;;3.89;73.53
12759;BME280;20944;47.048;15.390;2023-03-01T09:52:23;98294.66;;;3.89;74.84
12759;BME280;20944;47.048;15.390;2023-03-01T09:54:55;98310.44;;;4.13;73.89
12759;BME280;20944;47.048;15.390;2023-03-01T09:57:30;98315.66;;;4.16;73.80
12759;BME280;20944;47.048;15.390;2023-03-01T10:00:33;98321.75;;;4.21;73.25
12759;BME280;20944;47.048;15.390;2023-03-01T10:03:13;98308.84;;;4.27;71.73
12759;BME280;20944;47.048;15.390;2023-03-01T10:05:52;98307.06;;;4.22;70.65
12759;BME280;20944;47.048;15.390;2023-03-01T10:08:30;98285.34;;;4.12;71.15
12759;BME280;20944;47.048;15.390;2023-03-01T10:11:03;98306.09;;;4.14;71.26
12759;BME280;20944;47.048;15.390;2023-03-01T10:13:46;98285.31;;;4.06;71.57
12759;BME280;20944;47.048;15.390;2023-03-01T10:16:22;98279.34;;;4.18;71.54
12759;BME280;20944;47.048;15.390;2023-03-01T10:18:58;98303.66;;;4.27;70.62
12759;BME280;20944;47.048;15.390;2023-03-01T10:21:28;98232.19;;;3.61;70.70
12759;BME280;20944;47.048;15.390;2023-03-01T10:24:08;98288.09;;;4.29;71.14
12759;BME280;20944;47.048;15.390;2023-03-01T10:26:48;98305.47;;;4.42;71.02
12759;BME280;20944;47.048;15.390;2023-03-01T10:29:22;98312.50;;;4.54;71.02
12759;BME280;20944;47.048;15.390;2023-03-01T10:31:53;98315.97;;;4.56;70.35
12759;BME280;20944;47.048;15.390;2023-03-01T10:34:28;98326.25;;;4.45;70.46
12759;BME280;20944;47.048;15.390;2023-03-01T10:37:04;98335.75;;;4.45;71.43
12759;BME280;20944;47.048;15.390;2023-03-01T10:39:36;98307.13;;;4.28;71.75
12759;BME280;20944;47.048;15.390;2023-03-01T10:42:18;98351.38;;;4.49;71.08
12759;BME280;20944;47.048;15.390;2023-03-01T10:44:48;98353.06;;;4.44;71.38
12759;BME280;20944;47.048;15.390;2023-03-01T10:47:19;98357.38;;;4.45;70.51
12759;BME280;20944;47.048;15.390;2023-03-01T10:49:57;98359.97;;;4.41;71.40
12759;BME280;20944;47.048;15.390;2023-03-01T10:52:31;98364.28;;;4.42;70.89
12759;BME280;20944;47.048;15.390;2023-03-01T10:55:03;98343.44;;;4.29;71.45
12759;BME280;20944;47.048;15.390;2023-03-01T10:57:35;98357.28;;;4.31;72.33
12759;BME280;20944;47.048;15.390;2023-03-01T11:00:21;98346.84;;;4.25;72.34
12759;BME280;20944;47.048;15.390;2023-03-01T11:03:01;98353.53;;;4.02;72.45
12759;BME280;20944;47.048;15.390;2023-03-01T11:05:32;98271.13;;;3.67;73.08
12759;BME280;20944;47.048;15.390;2023-03-01T11:08:02;98305.94;;;3.95;73.80
12759;BME280;20944;47.048;15.390;2023-03-01T11:10:33;98330.47;;;4.31;73.89
12759;BME280;20944;47.048;15.390;2023-03-01T11:13:06;98323.59;;;4.38;73.61
12759;BME280;20944;47.048;15.390;2023-03-01T11:15:35;98328.88;;;4.47;73.66
12759;BME280;20944;47.048;15.390;2023-03-01T11:18:04;98322.84;;;4.49;73.16
12759;BME280;20944;47.048;15.390;2023-03-01T11:20:41;98294.16;;;4.31;73.25
12759;BME280;20944;47.048;15.390;2023-03-01T11:23:11;98319.47;;;4.59;72.99
12759;BME280;20944;47.048;15.390;2023-03-01T11:25:42;98326.44;;;4.68;72.36
12759;BME280;20944;47.048;15.390;2023-03-01T11:28:14;98319.47;;;4.61;72.75
12759;BME280;20944;47.048;15.390;2023-03-01T11:30:48;98302.25;;;4.77;73.82
12759;BME280;20944;47.048;15.390;2023-03-01T11:33:37;98296.22;;;4.81;73.47
12759;BME280;20944;47.048;15.390;2023-03-01T11:36:16;98293.59;;;4.72;73.03
12759;BME280;20944;47.048;15.390;2023-03-01T11:38:46;98277.06;;;4.59;73.77
12759;BME280;20944;47.048;15.390;2023-03-01T11:41:17;98287.59;;;4.90;74.57
12759;BME280;20944;47.048;15.390;2023-03-01T11:43:50;98284.19;;;4.92;74.22
12759;BME280;20944;47.048;15.390;2023-03-01T11:49:40;98274.75;;;5.12;73.61
12759;BME280;20944;47.048;15.390;2023-03-01T11:52:21;98282.56;;;5.19;73.22
12759;BME280;20944;47.048;15.390;2023-03-01T11:55:05;98281.66;;;5.15;71.76
12759;BME280;20944;47.048;15.390;2023-03-01T11:57:49;98285.00;;;4.86;73.19
12759;BME280;20944;47.048;15.390;2023-03-01T12:00:44;98284.13;;;4.84;74.05
12759;BME280;20944;47.048;15.390;2023-03-01T12:03:33;98286.78;;;4.94;73.49
12759;BME280;20944;47.048;15.390;2023-03-01T12:06:18;98276.44;;;5.03;73.62
12759;BME280;20944;47.048;15.390;2023-03-01T12:09:01;98256.59;;;5.23;73.68
12759;BME280;20944;47.048;15.390;2023-03-01T12:11:41;98252.28;;;5.33;73.18
12759;BME280;20944;47.048;15.390;2023-03-01T12:14:22;98226.31;;;5.37;72.41
12759;BME280;20944;47.048;15.390;2023-03-01T12:17:09;98229.84;;;5.64;72.37
12759;BME280;20944;47.048;15.390;2023-03-01T12:19:58;98205.59;;;5.76;72.24
12759;BME280;20944;47.048;15.390;2023-03-01T12:22:31;98215.19;;;5.92;71.86
12759;BME280;20944;47.048;15.390;2023-03-01T12:28:19;98213.44;;;6.08;70.58
12759;BME280;20944;47.048;15.390;2023-03-01T12:31:05;98213.41;;;5.73;70.11
12759;BME280;20944;47.048;15.390;2023-03-01T12:33:46;98202.13;;;5.74;70.25
12759;BME280;20944;47.048;15.390;2023-03-01T12:36:37;98193.47;;;5.61;70.06
12759;BME280;20944;47.048;15.390;2023-03-01T12:39:22;98195.19;;;5.74;70.59
12759;BME280;20944;47.048;15.390;2023-03-01T12:42:01;98174.38;;;5.44;69.46
12759;BME280;20944;47.048;15.390;2023-03-01T12:44:42;98195.19;;;5.60;70.56
12759;BME280;20944;47.048;15.390;2023-03-01T12:47:22;98183.06;;;5.67;70.47
12759;BME280;20944;47.048;15.390;2023-03-01T12:49:57;98178.72;;;5.75;70.23
12759;BME280;20944;47.048;15.390;2023-03-01T12:52:35;98167.47;;;5.81;70.74
12759;BME280;20944;47.048;15.390;2023-03-01T12:55:24;98168.31;;;5.71;70.29
12759;BME280;20944;47.048;15.390;2023-03-01T12:58:04;98159.66;;;5.79;70.34
12759;BME280;20944;47.048;15.390;2023-03-01T13:00:40;98032.31;;;5.12;70.85
12759;BME280;20944;47.048;15.390;2023-03-01T13:03:19;98141.47;;;5.94;70.72
12759;BME280;20944;47.048;15.390;2023-03-01T13:06:04;98142.31;;;6.07;69.85
12759;BME280;20944;47.048;15.390;2023-03-01T13:08:40;98131.94;;;6.01;69.61
12759;BME280;20944;47.048;15.390;2023-03-01T13:11:17;98111.13;;;5.93;70.23
12759;BME280;20944;47.048;15.390;2023-03-01T13:13:47;98136.25;;;6.05;69.71
12759;BME280;20944;47.048;15.390;2023-03-01T13:16:39;98116.28;;;6.19;69.74
12759;BME280;20944;47.048;15.390;2023-03-01T13:19:13;98101.53;;;6.15;69.83
12759;BME280;20944;47.048;15.390;2023-03-01T13:21:43;98105.00;;;6.22;69.83
12759;BME280;20944;47.048;15.390;2023-03-01T13:24:26;98102.34;;;6.34;69.44
12759;BME280;20944;47.048;15.390;2023-03-01T13:27:11;98096.28;;;6.37;70.83
12759;BME280;20944;47.048;15.390;2023-03-01T13:29:48;98104.94;;;6.39;71.17
12759;BME280;20944;47.048;15.390;2023-03-01T13:32:21;98103.22;;;6.33;71.72